Operativo Sol 2017

 

El día 29 de diciembre del 2017 el Aeroclub Mar del Plata recibió a la flota aérea de helicópteros de la Policía Bonaerense, quienes serán parte integrante del Operativo Sol 2017.
Conjuntamente con el Jefe de Aeródromo, se facilitó el uso exclusivo del Aeródromo a dicha flota para sus operaciones.
El honor de nuestra Institución en poder brindar un servicio a la Comunidad.

Fotos del recibimiento de los Helicópteros 

Facebook Aeroclub Mar del Plata

Informe Climatico
MAR DEL PLATA AR
Metar
SAZM 150100Z 23006KT 180V280 9999 BKN015 BKN025 12/09 Q1019

01:00 UTC

Wind: 230° 6kt

Visibility: 9999 m

Sky: BKN 1500 ft

Temp: 12 deg C / 53.6 deg F

Dewpoint: 9 deg C / 48.2 deg F

Pressure: 1019 hPa

TAF
TAF SAZM 142300Z 1500/1524 23010KT 9999 OVC010 TX12/1500Z TN08/1510Z BECMG 1503/1506 25005KT 5000 BR DZ OVC005 BECMG 1512/1514 18010KT 9000 OVC007 BECMG 1517/1519 16015KT 9999 OVC010